Time;durP1;ratioP1;P1;durP2;ratioP2;P2;SDS_P1;SDS_P2;PMS_P1;PMS_P2;Temp;Humidity;BMP_temperature;BMP_pressure;BME280_temperature;BME280_humidity;BME280_pressure;Samples;Min_cycle;Max_cycle;Signal;HPM_P1;HPM_P2
2021/11/11 00:00:25;;;;;;;98.00;51.30;;;;;;;4.59;64.89;100031.10;212915;1328;210425;-58
2021/11/11 00:05:49;;;;;;;94.90;50.70;;;;;;;4.54;65.18;100025.45;213133;1320;139610;-58
2021/11/11 00:10:52;;;;;;;89.20;50.40;;;;;;;4.48;65.09;100025.02;213149;1320;138844;-57
2021/11/11 00:15:56;;;;;;;95.20;51.90;;;;;;;4.37;65.15;100023.66;213404;1325;138986;-59
2021/11/11 00:20:59;;;;;;;94.00;51.20;;;;;;;4.30;65.06;100026.27;213398;1320;138956;-58
2021/11/11 00:26:02;;;;;;;97.30;50.80;;;;;;;4.23;65.25;100021.48;213934;1319;138723;-58
2021/11/11 00:31:05;;;;;;;93.00;51.20;;;;;;;4.20;65.26;100021.03;213163;1325;139123;-56
2021/11/11 00:36:09;;;;;;;99.50;51.80;;;;;;;4.25;65.29;100024.25;212717;1322;139577;-60
2021/11/11 00:41:14;;;;;;;96.00;51.50;;;;;;;4.32;65.32;100029.05;213594;1320;139791;-61
2021/11/11 00:46:17;;;;;;;96.30;50.90;;;;;;;4.34;65.38;100030.58;214048;1320;139741;-58
2021/11/11 00:51:20;;;;;;;86.30;51.30;;;;;;;4.31;65.36;100028.91;212584;1326;139231;-57
2021/11/11 00:56:23;;;;;;;89.60;51.10;;;;;;;4.31;65.50;100024.33;212735;1326;139973;-57
2021/11/11 01:01:29;;;;;;;94.70;51.00;;;;;;;4.26;65.48;100022.14;212941;1320;138952;-57
2021/11/11 01:06:33;;;;;;;96.50;52.60;;;;;;;4.19;65.37;100016.14;212866;1327;138869;-59
2021/11/11 01:11:37;;;;;;;83.90;49.60;;;;;;;4.12;65.66;100024.89;212557;1324;140140;-57
2021/11/11 01:16:52;;;;;;;87.00;48.30;;;;;;;4.07;65.49;100021.83;212635;1326;140890;-58
2021/11/11 01:21:55;;;;;;;90.90;49.30;;;;;;;4.01;65.56;100017.89;212943;1323;138917;-58
2021/11/11 01:26:58;;;;;;;99.40;50.80;;;;;;;3.96;65.67;100010.09;212473;1326;139234;-58
2021/11/11 01:32:02;;;;;;;91.60;49.90;;;;;;;3.99;65.61;100013.55;212964;1324;142286;-59
2021/11/11 01:37:05;;;;;;;99.30;52.80;;;;;;;4.03;65.69;100012.92;213305;1325;140203;-55
2021/11/11 01:42:14;;;;;;;98.80;51.60;;;;;;;4.02;65.65;100006.46;212991;1327;139383;-58
2021/11/11 01:47:19;;;;;;;90.30;51.30;;;;;;;3.99;65.54;100004.42;212946;1325;139299;-57
2021/11/11 01:52:25;;;;;;;89.40;48.90;;;;;;;3.96;65.62;100001.15;213435;1323;139136;-57
2021/11/11 01:57:30;;;;;;;97.40;50.40;;;;;;;3.92;65.43;99998.25;212717;1323;139350;-57
2021/11/11 02:02:39;;;;;;;87.60;49.60;;;;;;;3.86;65.50;100000.99;213802;1320;138762;-55
2021/11/11 02:07:43;;;;;;;91.80;48.10;;;;;;;3.84;65.72;99994.87;213534;1325;138844;-58
2021/11/11 02:12:48;;;;;;;89.50;49.20;;;;;;;3.79;65.56;99992.34;212539;1322;140645;-55
2021/11/11 02:17:52;;;;;;;95.80;50.50;;;;;;;3.70;65.51;99996.54;212381;1327;139415;-58
2021/11/11 02:22:57;;;;;;;90.00;49.70;;;;;;;3.64;65.66;100005.98;212758;1327;139921;-59
2021/11/11 02:28:19;;;;;;;98.60;49.00;;;;;;;3.59;65.87;100006.59;212938;1325;139673;-58
2021/11/11 02:33:26;;;;;;;89.50;47.10;;;;;;;3.59;66.07;100002.19;212667;1322;139853;-58
2021/11/11 02:38:30;;;;;;;88.90;47.50;;;;;;;3.59;65.82;99998.31;213044;1326;139712;-57
2021/11/11 02:43:33;;;;;;;86.80;48.20;;;;;;;3.61;65.94;99998.46;213160;1326;138788;-56
2021/11/11 02:48:42;;;;;;;81.20;46.30;;;;;;;3.62;65.96;100003.00;213287;1319;138549;-59
2021/11/11 02:53:46;;;;;;;86.90;46.60;;;;;;;3.61;65.79;100002.15;213072;1324;138951;-58
2021/11/11 02:58:49;;;;;;;85.90;45.10;;;;;;;3.56;65.69;99994.00;212812;1323;139226;-58
2021/11/11 03:03:52;;;;;;;83.50;45.30;;;;;;;3.53;65.83;99987.22;213192;1326;140330;-57
2021/11/11 03:08:56;;;;;;;80.10;45.00;;;;;;;3.50;65.94;99976.90;213520;1320;138957;-57
2021/11/11 03:13:59;;;;;;;81.10;45.10;;;;;;;3.45;66.03;99967.52;212729;1323;173332;-59
2021/11/11 03:19:03;;;;;;;84.30;43.70;;;;;;;3.42;65.98;99963.73;212908;1322;138900;-58
2021/11/11 03:24:06;;;;;;;75.80;43.00;;;;;;;3.37;66.04;99953.65;213176;1321;139442;-58
2021/11/11 03:29:09;;;;;;;85.90;45.40;;;;;;;3.34;66.06;99954.59;212897;1320;141358;-56
2021/11/11 03:34:19;;;;;;;77.30;43.50;;;;;;;3.35;66.24;99948.23;212963;1325;140303;-57
2021/11/11 03:39:24;;;;;;;84.50;43.50;;;;;;;3.38;66.09;99942.57;213541;1319;139213;-58
2021/11/11 03:44:28;;;;;;;82.30;43.20;;;;;;;3.40;66.03;99938.52;213424;1322;138730;-58
2021/11/11 03:49:33;;;;;;;78.70;43.40;;;;;;;3.41;66.28;99936.74;212627;1320;141118;-59
2021/11/11 03:54:37;;;;;;;76.00;42.50;;;;;;;3.38;66.12;99927.14;212505;1322;138758;-58
2021/11/11 03:59:41;;;;;;;78.80;43.50;;;;;;;3.32;66.15;99919.38;212653;1327;139603;-56
2021/11/11 04:04:44;;;;;;;77.60;41.90;;;;;;;3.25;66.03;99924.05;213571;1326;140873;-59
2021/11/11 04:09:48;;;;;;;76.70;40.60;;;;;;;3.24;66.34;99926.52;212695;1319;142135;-58
2021/11/11 04:14:51;;;;;;;75.00;40.70;;;;;;;3.28;66.23;99927.85;212762;1320;138604;-56
2021/11/11 04:19:56;;;;;;;72.10;41.10;;;;;;;3.25;66.36;99926.48;213259;1323;138830;-57
2021/11/11 04:25:02;;;;;;;79.10;41.40;;;;;;;3.23;66.25;99919.19;212945;1323;138391;-55
2021/11/11 04:30:22;;;;;;;79.70;41.30;;;;;;;3.21;66.53;99922.55;213379;1320;138859;-56
2021/11/11 04:35:27;;;;;;;76.90;41.20;;;;;;;3.24;66.56;99927.04;212587;1328;139608;-60
2021/11/11 05:06:49;;;;;;;74.70;40.70;;;;;;;3.38;66.70;99899.95;212640;1326;140666;-59
2021/11/11 05:11:52;;;;;;;69.00;40.00;;;;;;;3.39;66.70;99905.55;213340;1319;139288;-56
2021/11/11 05:16:56;;;;;;;72.80;40.80;;;;;;;3.33;66.68;99907.76;212397;1328;140268;-60
2021/11/11 05:22:00;;;;;;;73.90;40.40;;;;;;;3.29;66.45;99915.55;212603;1326;139058;-55
2021/11/11 05:27:04;;;;;;;73.50;40.00;;;;;;;3.24;66.56;99917.39;213665;1322;140233;-56
2021/11/11 05:32:09;;;;;;;75.30;39.50;;;;;;;3.23;66.57;99911.13;213169;1322;139839;-58
2021/11/11 05:37:13;;;;;;;69.40;38.30;;;;;;;3.24;66.68;99907.23;212451;1323;140164;-59
2021/11/11 05:42:16;;;;;;;76.50;40.30;;;;;;;3.29;66.59;99903.29;212643;1322;140499;-57
2021/11/11 05:47:21;;;;;;;68.40;39.70;;;;;;;3.31;66.52;99910.44;212268;1328;138921;-58
2021/11/11 05:52:24;;;;;;;78.90;39.80;;;;;;;3.29;66.42;99911.70;212767;1323;138819;-56
2021/11/11 05:57:30;;;;;;;73.70;38.40;;;;;;;3.27;66.41;99918.75;212473;1323;138501;-59
2021/11/11 06:02:33;;;;;;;66.30;38.10;;;;;;;3.22;66.23;99919.55;212926;1320;139248;-57
2021/11/11 06:07:37;;;;;;;68.50;37.00;;;;;;;3.18;66.40;99921.55;213135;1320;139018;-54
2021/11/11 06:12:40;;;;;;;70.00;37.30;;;;;;;3.15;66.46;99917.56;212660;1320;139793;-57
2021/11/11 06:17:44;;;;;;;71.00;37.10;;;;;;;3.15;66.62;99919.14;213421;1320;138809;-58
2021/11/11 06:22:49;;;;;;;68.10;37.50;;;;;;;3.16;66.55;99918.79;212852;1322;138991;-53
2021/11/11 06:27:57;;;;;;;61.20;36.40;;;;;;;3.14;66.74;99915.33;212572;1329;139909;-59
2021/11/11 06:33:01;;;;;;;72.80;38.20;;;;;;;3.12;66.71;99915.86;213348;1319;139523;-60
2021/11/11 06:38:07;;;;;;;65.00;36.80;;;;;;;3.15;66.70;99915.11;213515;1323;140400;-59
2021/11/11 06:43:10;;;;;;;74.40;37.90;;;;;;;3.21;66.69;99911.85;213348;1319;140325;-58
2021/11/11 06:48:14;;;;;;;75.20;38.90;;;;;;;3.25;66.82;99908.96;213220;1319;139344;-59
2021/11/11 06:53:19;;;;;;;69.80;38.10;;;;;;;3.34;67.16;99901.95;213627;1319;140047;-59
2021/11/11 06:58:23;;;;;;;65.70;36.60;;;;;;;3.43;67.14;99906.36;212869;1322;142423;-61
2021/11/11 07:03:29;;;;;;;66.50;36.60;;;;;;;3.45;66.99;99912.98;212960;1320;140086;-59
2021/11/11 07:08:32;;;;;;;61.40;36.40;;;;;;;3.50;67.16;99907.97;212972;1320;138845;-57
2021/11/11 07:13:35;;;;;;;71.80;37.50;;;;;;;3.54;67.14;99900.86;212851;1319;139128;-61
2021/11/11 07:18:39;;;;;;;61.10;36.20;;;;;;;3.61;67.17;99898.11;212077;1325;138565;-61
2021/11/11 07:23:42;;;;;;;66.00;38.00;;;;;;;3.68;67.23;99889.73;212564;1322;138415;-60
2021/11/11 07:28:46;;;;;;;69.90;37.60;;;;;;;3.76;67.27;99887.98;212769;1320;139048;-59
2021/11/11 07:33:49;;;;;;;63.80;37.10;;;;;;;3.88;67.55;99894.06;213115;1326;142562;-58
2021/11/11 07:38:53;;;;;;;70.50;39.20;;;;;;;4.03;67.51;99892.67;212188;1328;140318;-60
2021/11/11 07:43:56;;;;;;;68.60;39.30;;;;;;;4.20;67.84;99879.30;212358;1322;139544;-58
2021/11/11 07:49:00;;;;;;;66.70;38.40;;;;;;;4.36;67.70;99881.39;212790;1320;139927;-56
2021/11/11 07:54:04;;;;;;;69.60;38.80;;;;;;;4.49;67.73;99873.19;212451;1329;139513;-58
2021/11/11 07:59:07;;;;;;;72.80;39.20;;;;;;;4.63;67.65;99871.80;212786;1328;138849;-59
2021/11/11 08:04:10;;;;;;;64.60;39.10;;;;;;;4.78;67.72;99870.00;213382;1323;138562;-58
2021/11/11 08:09:13;;;;;;;69.30;39.30;;;;;;;4.94;67.78;99875.94;212772;1322;142578;-59
2021/11/11 08:14:17;;;;;;;70.50;41.80;;;;;;;5.12;67.99;99873.19;212535;1320;139241;-58
2021/11/11 08:19:22;;;;;;;72.50;42.80;;;;;;;5.29;68.08;99863.23;212714;1323;140979;-60
2021/11/11 08:24:25;;;;;;;75.10;43.10;;;;;;;5.46;68.14;99861.34;212976;1323;139306;-57
2021/11/11 08:29:27;;;;;;;271.20;172.60;;;;;;;5.68;68.39;99852.61;213896;1322;139717;-57
2021/11/11 08:34:31;;;;;;;68.40;40.90;;;;;;;6.05;68.37;99857.21;213423;1319;139684;-59
2021/11/11 08:39:34;;;;;;;77.90;47.00;;;;;;;6.37;68.29;99859.21;212235;1328;139150;-59
2021/11/11 08:44:42;;;;;;;99.80;55.80;;;;;;;6.66;68.34;99848.39;212913;1322;138818;-59
2021/11/11 08:49:50;;;;;;;81.90;47.20;;;;;;;6.91;68.10;99840.86;212587;1322;139413;-58
2021/11/11 08:54:54;;;;;;;87.20;55.10;;;;;;;7.10;67.80;99839.66;212904;1322;139772;-57
2021/11/11 08:59:57;;;;;;;91.60;53.30;;;;;;;7.37;68.04;99838.34;212207;1322;139234;-57
2021/11/11 09:05:00;;;;;;;71.80;44.30;;;;;;;7.59;67.45;99842.69;212176;1329;138844;-59
2021/11/11 09:10:09;;;;;;;71.40;42.90;;;;;;;7.72;67.15;99845.91;212719;1322;139242;-58
2021/11/11 09:15:14;;;;;;;73.90;42.50;;;;;;;7.86;66.96;99839.02;213082;1322;139841;-57
2021/11/11 09:20:18;;;;;;;131.20;79.00;;;;;;;8.08;67.52;99824.90;212308;1325;139371;-59
2021/11/11 09:25:23;;;;;;;76.20;43.70;;;;;;;8.42;67.71;99817.38;212475;1321;139521;-60
2021/11/11 09:30:33;;;;;;;66.30;41.10;;;;;;;8.60;67.02;99815.43;212158;1322;139728;-57
2021/11/11 09:35:37;;;;;;;67.30;41.80;;;;;;;8.77;66.82;99805.36;212880;1323;139540;-59
2021/11/11 09:40:40;;;;;;;64.70;40.70;;;;;;;8.95;66.59;99790.77;212662;1326;139950;-60
2021/11/11 09:46:17;;;;;;;71.60;42.80;;;;;;;9.13;66.17;99784.85;212563;1325;139259;-59
2021/11/11 09:51:23;;;;;;;68.60;41.50;;;;;;;9.25;65.99;99774.73;212654;1320;139796;-59
2021/11/11 10:02:22;;;;;;;66.50;38.10;;;;;;;9.45;65.49;99766.04;212373;1328;139925;-59
2021/11/11 10:07:25;;;;;;;343.70;232.20;;;;;;;9.57;65.50;99768.00;214877;1319;138920;-60
2021/11/11 10:12:29;;;;;;;76.50;46.00;;;;;;;9.81;65.58;99764.05;214377;1319;139529;-59
2021/11/11 10:17:43;;;;;;;58.70;36.40;;;;;;;10.24;66.57;99760.86;212552;1319;138950;-58
2021/11/11 10:22:48;;;;;;;56.10;35.20;;;;;;;10.86;66.04;99753.17;215444;1319;139661;-58
2021/11/11 10:27:59;;;;;;;50.90;30.80;;;;;;;11.19;65.19;99753.95;213622;1322;139659;-59
2021/11/11 10:33:12;;;;;;;119.40;76.70;;;;;;;11.19;63.64;99752.16;213787;1319;140425;-61
2021/11/11 10:38:23;;;;;;;644.80;477.60;;;;;;;11.94;65.97;99740.40;214305;1321;140342;-58
2021/11/11 10:43:28;;;;;;;50.30;31.30;;;;;;;12.34;63.85;99739.60;214324;1319;140818;-56
2021/11/11 10:48:32;;;;;;;45.00;28.50;;;;;;;12.25;61.89;99738.85;213459;1322;139556;-56
2021/11/11 10:53:36;;;;;;;45.90;28.70;;;;;;;12.14;61.79;99724.39;212383;1325;139137;-57
2021/11/11 10:58:39;;;;;;;38.60;26.40;;;;;;;12.16;61.37;99724.45;212818;1322;139173;-59
2021/11/11 11:03:45;;;;;;;409.80;283.20;;;;;;;12.10;61.14;99724.95;212910;1322;139590;-59
2021/11/11 11:08:57;;;;;;;48.50;29.80;;;;;;;12.04;60.98;99723.15;212868;1322;139258;-59
2021/11/11 11:14:03;;;;;;;37.40;26.00;;;;;;;11.95;60.82;99719.21;212482;1325;150314;-56
2021/11/11 11:19:08;;;;;;;;;;;;;;;11.91;60.65;99719.30;213135;1320;139762;-58
2021/11/11 11:24:15;;;;;;;36.30;23.70;;;;;;;11.88;60.18;99711.83;214311;1319;125532;-58
2021/11/11 11:29:34;;;;;;;32.00;22.80;;;;;;;11.86;60.25;99717.80;212412;1329;139609;-59
2021/11/11 11:34:46;;;;;;;34.40;23.70;;;;;;;11.93;60.29;99713.48;212614;1326;141723;-58
2021/11/11 11:39:56;;;;;;;153.20;105.00;;;;;;;12.04;60.37;99712.11;212844;1323;140262;-57
2021/11/11 11:45:26;;;;;;;41.30;24.50;;;;;;;12.31;60.53;99709.85;213185;1319;139666;-58
2021/11/11 11:50:38;;;;;;;31.40;21.70;;;;;;;12.45;59.93;99707.08;212703;1326;143764;-55
2021/11/11 11:55:48;;;;;;;34.80;21.20;;;;;;;12.53;59.72;99704.46;213102;1328;140930;-58
2021/11/11 12:01:23;;;;;;;33.20;22.00;;;;;;;12.61;59.16;99706.67;212358;1322;139952;-58
2021/11/11 12:39:34;;;;;;;276.80;190.60;;;;;;;12.89;57.76;99690.05;212474;1322;139491;-56
2021/11/11 12:45:00;;;;;;;23.70;15.10;;;;;;;13.03;57.26;99685.27;213504;1321;139706;-58
2021/11/11 12:50:26;;;;;;;21.20;13.70;;;;;;;13.03;56.97;99682.74;213161;1320;139862;-59
2021/11/11 12:55:31;;;;;;;19.50;13.80;;;;;;;13.02;56.68;99683.70;212819;1320;139496;-57
2021/11/11 13:00:36;;;;;;;249.60;169.70;;;;;;;13.05;56.63;99689.77;212677;1320;139676;-57
2021/11/11 13:05:59;;;;;;;27.50;17.90;;;;;;;13.24;57.26;99687.15;212888;1323;139272;-57
2021/11/11 13:11:05;;;;;;;22.10;14.20;;;;;;;13.25;55.80;99682.80;213569;1321;139275;-57
2021/11/11 13:16:18;;;;;;;;;;;;;;;13.21;55.86;99688.08;212526;1321;140214;-57
2021/11/11 14:00:26;;;;;;;26.80;17.60;;;;;;;12.67;55.64;99695.12;212596;1321;141887;-55
2021/11/11 15:59:54;;;;;;;56.20;30.50;;;;;;;10.38;58.09;99719.24;212835;1325;140767;-56
2021/11/11 16:26:33;;;;;;;62.40;31.60;;;;;;;9.24;59.22;99725.73;211950;1334;139643;-57
2021/11/11 16:31:36;;;;;;;59.60;33.60;;;;;;;9.11;59.57;99725.83;212595;1328;139121;-55
2021/11/11 16:36:42;;;;;;;75.40;32.90;;;;;;;8.97;59.63;99733.86;212292;1325;139160;-57
2021/11/11 16:41:46;;;;;;;63.30;30.90;;;;;;;8.87;59.89;99738.58;212327;1323;138727;-55
2021/11/11 16:46:50;;;;;;;60.90;30.90;;;;;;;8.89;60.68;99746.26;212086;1329;138992;-58
2021/11/11 16:51:53;;;;;;;55.20;30.00;;;;;;;8.94;60.50;99747.08;212341;1324;140519;-55
2021/11/11 16:56:57;;;;;;;51.20;28.00;;;;;;;8.92;60.60;99750.53;212629;1322;142689;-55
2021/11/11 17:02:01;;;;;;;53.20;29.80;;;;;;;8.89;60.46;99756.88;212102;1331;140183;-57
2021/11/11 17:07:05;;;;;;;54.80;31.70;;;;;;;8.84;60.66;99753.35;212726;1326;138843;-55
2021/11/11 17:12:08;;;;;;;51.70;28.30;;;;;;;8.76;60.73;99750.70;213377;1319;139461;-55
2021/11/11 17:17:14;;;;;;;48.90;28.00;;;;;;;8.66;60.73;99752.89;213819;1319;139600;-57
2021/11/11 17:22:17;;;;;;;47.70;27.80;;;;;;;8.55;60.92;99757.61;213366;1322;139015;-56
2021/11/11 17:27:27;;;;;;;56.00;28.30;;;;;;;8.45;61.07;99757.52;213093;1324;139873;-55
2021/11/11 17:32:31;;;;;;;49.10;28.00;;;;;;;8.30;61.03;99756.17;212927;1326;139359;-56
2021/11/11 17:37:34;;;;;;;53.30;28.00;;;;;;;8.19;61.22;99761.73;212739;1320;138967;-57
2021/11/11 17:42:38;;;;;;;58.60;27.70;;;;;;;8.10;61.50;99758.57;212597;1328;139769;-57
2021/11/11 17:47:42;;;;;;;57.70;29.90;;;;;;;7.99;61.65;99761.98;213001;1324;140187;-57
2021/11/11 17:53:02;;;;;;;219.20;141.70;;;;;;;7.96;62.09;99756.98;212843;1320;139578;-57
2021/11/11 17:58:07;;;;;;;54.50;28.90;;;;;;;8.16;62.65;99750.73;213090;1323;140984;-55
2021/11/11 18:03:17;;;;;;;;;;;;;;;8.19;62.20;99745.83;212690;1320;139885;-58
2021/11/11 18:13:31;;;;;;;62.30;32.50;;;;;;;8.16;62.49;99748.26;212904;1323;139109;-55
2021/11/11 18:18:35;;;;;;;58.00;33.40;;;;;;;8.15;62.45;99754.46;213063;1320;139453;-57
2021/11/11 18:23:38;;;;;;;55.00;32.00;;;;;;;8.07;62.31;99760.45;213355;1321;139682;-56
2021/11/11 18:28:48;;;;;;;66.30;32.80;;;;;;;7.95;62.30;99763.08;213664;1320;139010;-57
2021/11/11 18:34:05;;;;;;;63.60;38.70;;;;;;;7.79;62.22;99763.15;212450;1322;139490;-58
2021/11/11 18:39:19;;;;;;;75.00;39.90;;;;;;;7.64;62.26;99759.69;212991;1321;140065;-56
2021/11/11 18:44:48;;;;;;;60.40;37.00;;;;;;;7.48;62.20;99757.98;212516;1328;140064;-55
2021/11/11 18:49:50;;;;;;;72.20;41.40;;;;;;;7.35;62.44;99760.94;212502;1320;140293;-56
2021/11/11 18:54:55;;;;;;;83.20;49.90;;;;;;;7.29;62.91;99758.71;212414;1328;139114;-55
2021/11/11 18:59:58;;;;;;;80.90;45.50;;;;;;;7.34;62.93;99755.83;212694;1326;139080;-58
2021/11/11 19:05:14;;;;;;;81.20;44.00;;;;;;;7.26;62.54;99752.97;212935;1325;139846;-59
2021/11/11 19:10:23;;;;;;;77.10;43.50;;;;;;;7.20;62.72;99758.49;213277;1326;139929;-58
2021/11/11 19:15:28;;;;;;;82.60;46.20;;;;;;;7.19;62.98;99757.32;212333;1326;262825;-58
2021/11/11 19:20:31;;;;;;;92.10;54.00;;;;;;;7.23;63.31;99758.20;212562;1326;140112;-57
2021/11/11 19:25:34;;;;;;;91.70;51.00;;;;;;;7.34;63.73;99756.75;212961;1326;138798;-57
2021/11/11 19:30:38;;;;;;;83.40;51.40;;;;;;;7.45;64.05;99756.35;212860;1326;139556;-58
2021/11/11 19:35:46;;;;;;;100.30;54.00;;;;;;;7.53;64.30;99756.58;213340;1322;139133;-57
2021/11/11 19:41:14;;;;;;;94.80;55.50;;;;;;;7.61;64.45;99760.48;212531;1326;139963;-58
2021/11/11 20:02:07;;;;;;;108.30;62.90;;;;;;;9.53;68.04;99762.66;213328;1319;138717;-57
2021/11/11 20:07:29;;;;;;;112.70;62.90;;;;;;;9.34;64.12;99759.84;213418;1319;140220;-57
2021/11/11 20:54:58;;;;;;;108.70;59.10;;;;;;;7.41;64.09;99773.41;213116;1320;140260;-56
2021/11/11 21:00:26;;;;;;;100.40;58.90;;;;;;;7.31;63.63;99780.86;214111;1320;139198;-58
2021/11/11 21:05:45;;;;;;;106.30;62.60;;;;;;;7.18;63.63;99775.36;212946;1319;139135;-57
2021/11/11 21:11:01;;;;;;;118.20;64.10;;;;;;;7.08;63.93;99779.24;213296;1319;140583;-58
2021/11/11 21:21:15;;;;;;;99.80;60.80;;;;;;;6.86;63.89;99777.16;212720;1322;127014;-57
2021/11/11 21:26:18;;;;;;;114.20;60.60;;;;;;;6.74;63.80;99785.70;213290;1322;138911;-58
2021/11/11 21:31:22;;;;;;;116.50;63.20;;;;;;;6.62;63.70;99787.54;213003;1326;139604;-59
2021/11/11 21:37:09;;;;;;;108.90;62.20;;;;;;;6.49;64.02;99784.09;212612;1323;139419;-56
2021/11/11 21:41:57;;;;;;;109.50;61.90;;;;;;;6.37;63.79;99787.65;212540;1329;138748;-58
2021/11/11 21:47:02;;;;;;;104.00;59.30;;;;;;;6.27;64.06;99788.49;212949;1325;139405;-58
2021/11/11 21:52:08;;;;;;;115.40;61.60;;;;;;;6.18;64.01;99794.77;212793;1319;139001;-57
2021/11/11 21:57:23;;;;;;;107.20;61.90;;;;;;;6.15;64.27;99797.15;213322;1322;139996;-57
2021/11/11 22:24:23;;;;;;;117.60;67.30;;;;;;;6.57;65.21;99796.00;213332;1321;138914;-59
2021/11/11 22:34:40;;;;;;;117.50;64.40;;;;;;;6.23;64.18;99795.67;212937;1322;125016;-55
2021/11/11 22:39:45;;;;;;;113.70;63.70;;;;;;;6.04;64.16;99800.53;213172;1322;139733;-58
2021/11/11 22:44:48;;;;;;;120.10;67.60;;;;;;;5.83;63.86;99803.06;212571;1320;139213;-58
2021/11/11 22:49:52;;;;;;;116.30;66.20;;;;;;;5.62;64.01;99805.98;212403;1325;140233;-57
2021/11/11 22:55:02;;;;;;;118.90;67.10;;;;;;;5.50;63.89;99804.41;212386;1331;139415;-59
2021/11/11 23:00:40;;;;;;;104.20;63.30;;;;;;;5.41;64.39;99799.90;213291;1320;139580;-57
2021/11/11 23:36:51;;;;;;;92.70;51.30;;;;;;;5.77;66.27;99793.05;212955;1323;139497;-60
2021/11/11 23:41:54;;;;;;;89.90;50.10;;;;;;;5.75;66.60;99793.29;213165;1321;138836;-59
2021/11/11 23:46:58;;;;;;;89.40;50.60;;;;;;;5.78;66.72;99788.61;212543;1326;139837;-60
